createdAt,value
2022-10-20T00:01:09.922Z,15.45
2022-10-20T00:03:37.124Z,8.95
2022-10-20T00:06:11.541Z,7.65
2022-10-20T00:08:39.054Z,7.50
2022-10-20T00:11:07.355Z,9.55
2022-10-20T00:13:34.664Z,10.45
2022-10-20T00:16:01.483Z,10.30
2022-10-20T00:18:28.655Z,7.75
2022-10-20T00:20:55.877Z,10.48
2022-10-20T00:23:23.382Z,6.95
2022-10-20T00:26:01.026Z,6.30
2022-10-20T00:28:27.790Z,11.73
2022-10-20T00:30:56.089Z,9.02
2022-10-20T00:33:23.641Z,8.90
2022-10-20T00:35:50.426Z,9.13
2022-10-20T00:40:48.806Z,7.60
2022-10-20T00:43:17.153Z,7.60
2022-10-20T00:45:50.245Z,8.52
2022-10-20T00:48:23.164Z,8.93
2022-10-20T00:50:52.569Z,8.73
2022-10-20T00:53:22.442Z,9.38
2022-10-20T00:55:51.893Z,6.88
2022-10-20T00:58:19.251Z,7.30
2022-10-20T01:00:50.935Z,7.22
2022-10-20T01:03:25.788Z,8.88
2022-10-20T01:05:52.548Z,9.88
2022-10-20T01:08:19.422Z,9.45
2022-10-20T01:11:11.324Z,8.18
2022-10-20T01:13:48.877Z,9.85
2022-10-20T01:16:37.177Z,8.60
2022-10-20T01:19:26.077Z,9.27
2022-10-20T01:22:14.565Z,10.40
2022-10-20T01:24:46.613Z,7.72
2022-10-20T01:27:36.398Z,8.75
2022-10-20T01:30:14.069Z,7.65
2022-10-20T01:33:13.061Z,12.55
2022-10-20T01:35:50.745Z,8.10
2022-10-20T01:38:51.701Z,7.47
2022-10-20T01:41:34.240Z,8.05
2022-10-20T01:44:07.771Z,8.95
2022-10-20T01:46:36.789Z,8.90
2022-10-20T01:49:04.954Z,10.60
2022-10-20T01:51:32.789Z,10.35
2022-10-20T01:53:59.802Z,7.07
2022-10-20T01:56:45.785Z,9.50
2022-10-20T01:59:19.912Z,11.98
2022-10-20T02:02:07.600Z,12.70
2022-10-20T02:04:40.461Z,9.57
2022-10-20T02:07:24.665Z,9.52
2022-10-20T02:12:32.271Z,8.93
2022-10-20T02:15:00.766Z,10.55
2022-10-20T02:17:28.890Z,10.68
2022-10-20T02:19:57.024Z,8.43
2022-10-20T02:22:24.803Z,7.63
2022-10-20T02:24:51.682Z,9.40
2022-10-20T02:27:32.558Z,8.43
2022-10-20T02:32:29.602Z,8.93
2022-10-20T02:34:56.320Z,10.82
2022-10-20T02:37:23.041Z,9.60
2022-10-20T02:39:49.825Z,10.10
2022-10-20T02:42:19.270Z,11.82
2022-10-20T02:44:46.030Z,10.88
2022-10-20T02:47:12.779Z,7.60
2022-10-20T02:49:39.526Z,10.63
2022-10-20T02:52:06.276Z,10.18
2022-10-20T02:54:33.877Z,11.07
2022-10-20T02:57:00.554Z,9.57
2022-10-20T02:59:27.249Z,8.82
2022-10-20T03:01:54.100Z,10.00
2022-10-20T03:04:21.061Z,11.60
2022-10-20T03:06:47.905Z,12.52
2022-10-20T03:09:14.683Z,8.18
2022-10-20T03:11:41.422Z,10.40
2022-10-20T03:14:08.266Z,9.93
2022-10-20T03:16:34.993Z,8.60
2022-10-20T03:19:04.676Z,11.52
2022-10-20T03:21:33.140Z,10.05
2022-10-20T03:23:59.879Z,12.00
2022-10-20T03:26:26.704Z,11.57
2022-10-20T03:28:53.446Z,10.60
2022-10-20T03:31:20.241Z,13.15
2022-10-20T03:33:46.959Z,9.95
2022-10-20T03:36:13.731Z,8.68
2022-10-20T03:38:43.798Z,10.95
2022-10-20T03:41:11.214Z,9.48
2022-10-20T03:43:41.120Z,11.15
2022-10-20T03:46:10.872Z,11.73
2022-10-20T03:48:38.646Z,8.68
2022-10-20T03:51:06.165Z,14.02
2022-10-20T03:53:33.239Z,11.15
2022-10-20T03:56:00.024Z,10.60
2022-10-20T03:58:26.851Z,9.25
2022-10-20T04:00:54.439Z,9.18
2022-10-20T04:03:21.112Z,10.05
2022-10-20T04:05:47.878Z,7.88
2022-10-20T04:10:46.204Z,11.60
2022-10-20T04:13:12.913Z,9.57
2022-10-20T04:15:39.625Z,8.43
2022-10-20T04:18:06.323Z,10.55
2022-10-20T04:20:33.072Z,11.05
2022-10-20T04:22:59.756Z,9.45
2022-10-20T04:25:26.528Z,12.27
2022-10-20T04:27:53.204Z,9.40
2022-10-20T04:30:19.965Z,10.35
2022-10-20T04:32:46.726Z,12.52
2022-10-20T04:35:13.443Z,9.27
2022-10-20T04:37:40.310Z,9.45
2022-10-20T04:40:07.569Z,10.27
2022-10-20T04:42:34.369Z,8.88
2022-10-20T04:45:01.063Z,9.50
2022-10-20T04:47:32.623Z,8.80
2022-10-20T04:49:59.340Z,9.10
2022-10-20T04:52:26.142Z,11.95
2022-10-20T04:54:52.829Z,10.35
2022-10-20T04:57:19.598Z,9.88
2022-10-20T04:59:46.392Z,9.43
2022-10-20T05:02:13.128Z,9.57
2022-10-20T05:04:39.899Z,9.82
2022-10-20T05:07:06.706Z,9.95
2022-10-20T05:09:33.522Z,12.02
2022-10-20T05:12:00.528Z,8.80
2022-10-20T05:14:27.710Z,11.48
2022-10-20T05:16:54.563Z,10.00
2022-10-20T05:19:21.441Z,10.23
2022-10-20T05:21:48.163Z,10.80
2022-10-20T05:24:19.806Z,11.15
2022-10-20T05:26:48.337Z,13.02
2022-10-20T05:29:15.076Z,10.50
2022-10-20T05:31:43.702Z,9.95
2022-10-20T05:36:37.778Z,9.75
2022-10-20T05:39:04.775Z,14.95
2022-10-20T05:41:36.319Z,11.35
2022-10-20T05:44:08.455Z,14.45
2022-10-20T05:46:38.408Z,12.18
2022-10-20T05:49:05.259Z,12.93
2022-10-20T05:51:36.318Z,11.88
2022-10-20T05:54:03.856Z,13.00
2022-10-20T05:56:31.939Z,10.75
2022-10-20T05:58:58.853Z,11.45
2022-10-20T06:01:48.305Z,10.40
2022-10-20T06:04:24.649Z,11.60
2022-10-20T06:06:52.425Z,12.20
2022-10-20T06:09:20.132Z,10.93
2022-10-20T06:11:47.368Z,11.57
2022-10-20T06:14:14.462Z,12.40
2022-10-20T06:16:41.229Z,12.15
2022-10-20T06:19:07.961Z,12.05
2022-10-20T06:21:35.984Z,10.93
2022-10-20T06:24:04.762Z,11.45
2022-10-20T06:26:33.282Z,10.65
2022-10-20T06:29:04.375Z,10.23
2022-10-20T06:31:41.107Z,10.00
2022-10-20T06:34:10.154Z,11.02
2022-10-20T06:36:38.824Z,14.65
2022-10-20T06:41:34.120Z,11.45
2022-10-20T06:44:01.651Z,12.27
2022-10-20T06:46:30.643Z,11.95
2022-10-20T06:49:00.796Z,12.02
2022-10-20T06:51:27.660Z,14.50
2022-10-20T06:53:54.425Z,12.63
2022-10-20T06:56:23.667Z,13.40
2022-10-20T06:58:52.789Z,12.68
2022-10-20T07:01:28.986Z,11.57
2022-10-20T07:03:58.938Z,15.02
2022-10-20T07:06:28.595Z,12.63
2022-10-20T07:08:56.418Z,11.90
2022-10-20T07:11:26.104Z,11.95
2022-10-20T07:13:53.293Z,14.15
2022-10-20T07:16:23.292Z,12.48
2022-10-20T07:18:50.362Z,11.45
2022-10-20T07:21:23.253Z,12.13
2022-10-20T07:23:50.944Z,14.13
2022-10-20T07:26:21.375Z,11.38
2022-10-20T07:28:59.330Z,13.02
2022-10-20T07:31:36.023Z,12.98
2022-10-20T07:34:23.771Z,11.85
2022-10-20T07:36:52.549Z,15.95
2022-10-20T07:39:19.386Z,12.40
2022-10-20T07:41:47.752Z,12.27
2022-10-20T07:44:15.086Z,11.68
2022-10-20T07:46:42.048Z,10.95
2022-10-20T07:49:42.302Z,16.05
2022-10-20T07:51:55.715Z,12.25
2022-10-20T07:54:22.615Z,13.30
2022-10-20T07:56:49.651Z,11.13
2022-10-20T07:59:16.413Z,14.68
2022-10-20T08:01:43.937Z,12.85
2022-10-20T08:04:11.269Z,14.77
2022-10-20T08:06:39.132Z,12.35
2022-10-20T08:09:07.255Z,13.82
2022-10-20T08:11:34.718Z,12.82
2022-10-20T08:14:01.625Z,11.82
2022-10-20T08:16:31.283Z,12.93
2022-10-20T08:24:05.973Z,13.88
2022-10-20T08:26:32.723Z,12.13
2022-10-20T08:28:59.549Z,13.35
2022-10-20T08:31:26.431Z,12.98
2022-10-20T08:33:53.427Z,16.48
2022-10-20T08:36:20.900Z,17.17
2022-10-20T08:38:48.234Z,13.98
2022-10-20T08:41:20.973Z,12.60
2022-10-20T08:43:50.890Z,14.25
2022-10-20T08:46:20.928Z,12.43
2022-10-20T08:48:48.460Z,12.45
2022-10-20T08:51:24.205Z,12.20
2022-10-20T08:53:53.767Z,12.60
2022-10-20T08:56:24.760Z,13.02
2022-10-20T08:58:51.903Z,12.80
2022-10-20T09:01:27.951Z,12.55
2022-10-20T09:04:02.849Z,12.02
2022-10-20T09:06:29.842Z,16.17
2022-10-20T09:08:58.319Z,11.02
2022-10-20T09:11:31.447Z,12.80
2022-10-20T09:13:58.252Z,12.15
2022-10-20T09:16:58.646Z,13.38
2022-10-20T09:19:25.171Z,10.90
2022-10-20T09:21:54.754Z,13.90
2022-10-20T09:24:23.549Z,12.15
2022-10-20T09:26:59.318Z,11.70
2022-10-20T09:29:38.107Z,11.18
2022-10-20T09:32:46.185Z,11.43
2022-10-20T09:35:35.782Z,13.13
2022-10-20T09:38:15.791Z,15.05
2022-10-20T09:40:59.028Z,12.65
2022-10-20T09:43:27.161Z,15.38
2022-10-20T09:45:58.545Z,15.38
2022-10-20T09:48:39.090Z,12.75
2022-10-20T09:53:58.702Z,19.10
2022-10-20T09:58:59.026Z,12.68
2022-10-20T10:03:58.445Z,12.10
2022-10-20T10:06:38.780Z,13.70
2022-10-20T10:12:02.947Z,14.25
2022-10-20T10:14:33.224Z,12.63
2022-10-20T10:17:01.232Z,11.98
2022-10-20T10:19:31.197Z,13.38
2022-10-20T10:22:01.422Z,12.65
2022-10-20T10:24:39.171Z,12.38
2022-10-20T10:27:27.354Z,13.57
2022-10-20T10:29:55.885Z,16.33
2022-10-20T10:35:29.017Z,14.13
2022-10-20T10:37:56.279Z,12.57
2022-10-20T10:40:33.995Z,12.73
2022-10-20T10:43:29.454Z,14.68
2022-10-20T10:45:57.632Z,16.17
2022-10-20T10:48:30.137Z,14.63
2022-10-20T10:51:05.370Z,15.13
2022-10-20T10:53:54.861Z,15.85
2022-10-20T10:56:24.613Z,15.43
2022-10-20T10:58:57.023Z,14.15
2022-10-20T11:02:02.891Z,15.77
2022-10-20T11:05:06.485Z,14.73
2022-10-20T11:07:42.346Z,15.38
2022-10-20T11:10:32.034Z,15.52
2022-10-20T11:13:24.444Z,16.95
2022-10-20T11:16:12.829Z,16.58
2022-10-20T11:19:10.917Z,15.93
2022-10-20T11:22:05.454Z,14.07
2022-10-20T11:24:46.065Z,18.55
2022-10-20T11:27:25.181Z,15.45
2022-10-20T11:30:08.419Z,16.80
2022-10-20T11:32:58.974Z,15.32
2022-10-20T11:35:49.580Z,15.70
2022-10-20T11:38:32.208Z,17.98
2022-10-20T11:41:25.314Z,18.63
2022-10-20T11:46:32.059Z,14.93
2022-10-20T11:49:01.656Z,13.48
2022-10-20T11:51:30.759Z,20.17
2022-10-20T11:54:31.330Z,16.42
2022-10-20T11:57:09.900Z,17.05
2022-10-20T11:59:58.325Z,16.75
2022-10-20T12:02:53.047Z,16.30
2022-10-20T12:05:31.439Z,16.67
2022-10-20T12:08:33.617Z,15.38
2022-10-20T12:11:14.708Z,15.43
2022-10-20T12:13:53.341Z,16.48
2022-10-20T12:16:59.429Z,16.90
2022-10-20T12:19:27.679Z,16.70
2022-10-20T12:21:55.793Z,16.25
2022-10-20T12:24:42.243Z,19.98
2022-10-20T12:27:09.006Z,17.35
2022-10-20T12:29:35.677Z,16.85
2022-10-20T12:32:27.288Z,16.92
2022-10-20T12:34:53.998Z,17.20
2022-10-20T12:37:33.368Z,18.20
2022-10-20T12:40:09.134Z,20.25
2022-10-20T12:42:46.405Z,17.05
2022-10-20T12:45:18.982Z,18.05
2022-10-20T12:47:59.062Z,19.40
2022-10-20T12:50:45.633Z,17.27
2022-10-20T12:53:17.298Z,22.52
2022-10-20T12:55:56.890Z,19.00
2022-10-20T12:58:23.579Z,16.13
2022-10-20T13:00:50.254Z,17.33
2022-10-20T13:03:37.365Z,17.52
2022-10-20T13:06:24.490Z,16.88
2022-10-20T13:09:03.547Z,16.63
2022-10-20T13:11:39.428Z,20.67
2022-10-20T13:14:12.003Z,16.27
2022-10-20T13:16:57.690Z,16.10
2022-10-20T13:19:43.433Z,15.93
2022-10-20T13:22:42.954Z,15.38
2022-10-20T13:25:40.292Z,14.80
2022-10-20T13:28:14.720Z,18.52
2022-10-20T13:30:51.287Z,17.35
2022-10-20T13:34:04.270Z,18.02
2022-10-20T13:36:56.153Z,18.52
2022-10-20T13:39:30.601Z,18.75
2022-10-20T13:42:20.874Z,20.63
2022-10-20T13:45:01.953Z,16.73
2022-10-20T13:47:59.965Z,15.65
2022-10-20T13:50:36.742Z,17.20
2022-10-20T13:53:12.409Z,19.17
2022-10-20T13:56:05.901Z,16.70
2022-10-20T13:58:34.374Z,17.25
2022-10-20T14:01:16.931Z,17.85
2022-10-20T14:03:47.278Z,18.45
2022-10-20T14:06:40.162Z,16.15
2022-10-20T14:09:16.852Z,15.50
2022-10-20T14:11:46.428Z,16.77
2022-10-20T14:14:20.371Z,19.02
2022-10-20T14:16:56.050Z,16.20
2022-10-20T14:19:27.623Z,18.08
2022-10-20T14:21:57.353Z,15.93
2022-10-20T14:24:37.380Z,19.15
2022-10-20T14:27:05.436Z,14.90
2022-10-20T14:29:37.542Z,18.65
2022-10-20T14:32:05.756Z,18.90
2022-10-20T14:34:36.485Z,17.85
2022-10-20T14:37:08.117Z,14.85
2022-10-20T14:39:40.322Z,18.55
2022-10-20T14:42:24.829Z,16.40
2022-10-20T14:44:52.952Z,15.70
2022-10-20T14:47:20.720Z,20.83
2022-10-20T14:49:52.600Z,19.90
2022-10-20T14:52:21.698Z,18.95
2022-10-20T14:54:50.776Z,19.10
2022-10-20T14:57:17.446Z,17.45
2022-10-20T14:59:56.246Z,15.73
2022-10-20T15:02:25.530Z,17.70
2022-10-20T15:04:52.898Z,18.27
2022-10-20T15:07:32.679Z,15.98
2022-10-20T15:10:07.551Z,18.95
2022-10-20T15:12:37.653Z,15.80
2022-10-20T15:15:25.414Z,17.95
2022-10-20T15:18:04.106Z,19.27
2022-10-20T15:20:39.292Z,17.13
2022-10-20T15:23:09.354Z,18.23
2022-10-20T15:25:50.718Z,20.85
2022-10-20T15:28:27.546Z,19.67
2022-10-20T15:30:54.376Z,18.65
2022-10-20T15:33:21.889Z,22.77
2022-10-20T15:35:48.854Z,18.10
2022-10-20T15:38:15.738Z,20.27
2022-10-20T15:40:42.541Z,20.30
2022-10-20T15:43:14.440Z,20.85
2022-10-20T15:45:54.602Z,16.33
2022-10-20T15:48:25.860Z,19.98
2022-10-20T15:50:58.960Z,18.00
2022-10-20T15:53:25.694Z,18.88
2022-10-20T15:55:52.394Z,17.38
2022-10-20T15:58:19.440Z,20.98
2022-10-20T16:00:46.267Z,19.83
2022-10-20T16:03:17.767Z,19.92
2022-10-20T16:05:46.017Z,23.52
2022-10-20T16:08:12.689Z,20.92
2022-10-20T16:10:39.440Z,21.45
2022-10-20T16:13:06.263Z,20.52
2022-10-20T16:15:33.099Z,16.63
2022-10-20T16:17:59.937Z,15.93
2022-10-20T16:20:26.680Z,18.05
2022-10-20T16:22:53.679Z,20.00
2022-10-20T16:25:20.432Z,18.95
2022-10-20T16:27:47.276Z,20.75
2022-10-20T16:30:14.047Z,20.20
2022-10-20T16:32:41.155Z,18.42
2022-10-20T16:35:08.969Z,19.40
2022-10-20T16:37:35.947Z,16.88
2022-10-20T16:40:03.534Z,19.75
2022-10-20T16:42:30.462Z,18.50
2022-10-20T16:44:57.372Z,17.63
2022-10-20T16:47:25.393Z,20.00
2022-10-20T16:49:52.217Z,22.52
2022-10-20T16:52:19.332Z,18.30
2022-10-20T16:54:46.074Z,20.73
2022-10-20T16:57:13.660Z,20.05
2022-10-20T16:59:41.227Z,19.17
2022-10-20T17:02:08.166Z,21.67
2022-10-20T17:04:34.981Z,20.23
2022-10-20T17:07:01.687Z,21.58
2022-10-20T17:09:29.997Z,22.83
2022-10-20T17:11:57.152Z,21.48
2022-10-20T17:14:23.895Z,21.83
2022-10-20T17:16:50.801Z,19.58
2022-10-20T17:19:17.594Z,19.77
2022-10-20T17:21:44.390Z,21.48
2022-10-20T17:24:12.966Z,21.98
2022-10-20T17:29:08.378Z,22.23
2022-10-20T17:31:35.998Z,23.23
2022-10-20T17:34:03.155Z,15.88
2022-10-20T17:36:31.063Z,17.48
2022-10-20T17:39:04.074Z,16.30
2022-10-20T17:41:30.900Z,17.88
2022-10-20T17:44:01.861Z,23.25
2022-10-20T17:46:28.981Z,28.27
2022-10-20T17:48:56.133Z,18.35
2022-10-20T17:51:27.703Z,17.80
2022-10-20T17:53:58.110Z,20.35
2022-10-20T17:56:35.277Z,18.55
2022-10-20T17:59:04.122Z,15.80
2022-10-20T18:01:34.202Z,17.02
2022-10-20T18:04:04.857Z,19.77
2022-10-20T18:06:34.611Z,20.00
2022-10-20T18:09:06.838Z,21.48
2022-10-20T18:11:35.538Z,21.30
2022-10-20T18:14:03.268Z,19.42
2022-10-20T18:16:32.058Z,19.65
2022-10-20T18:18:59.919Z,18.50
2022-10-20T18:21:28.441Z,18.58
2022-10-20T18:26:23.232Z,18.38
2022-10-20T18:28:50.651Z,20.35
2022-10-20T18:31:25.745Z,19.40
2022-10-20T18:33:57.250Z,17.65
2022-10-20T18:36:25.467Z,20.20
2022-10-20T18:38:55.711Z,18.67
2022-10-20T18:41:28.176Z,19.60
2022-10-20T18:44:00.231Z,22.40
2022-10-20T18:46:29.041Z,18.70
2022-10-20T18:48:56.333Z,20.88
2022-10-20T18:51:23.866Z,17.52
2022-10-20T18:53:56.214Z,17.10
2022-10-20T18:56:24.953Z,19.33
2022-10-20T18:58:54.137Z,19.15
2022-10-20T19:01:23.427Z,16.70
2022-10-20T19:03:52.923Z,17.52
2022-10-20T19:06:22.432Z,18.88
2022-10-20T19:08:54.018Z,19.35
2022-10-20T19:11:22.654Z,17.88
2022-10-20T19:13:49.706Z,20.42
2022-10-20T19:16:19.939Z,19.20
2022-10-20T19:18:49.988Z,16.70
2022-10-20T19:21:17.746Z,19.35
2022-10-20T19:23:48.175Z,17.85
2022-10-20T19:26:18.477Z,19.42
2022-10-20T19:28:48.443Z,20.33
2022-10-20T19:31:34.852Z,15.57
2022-10-20T19:34:12.549Z,18.92
2022-10-20T19:36:40.305Z,16.60
2022-10-20T19:39:09.636Z,21.98
2022-10-20T19:41:36.616Z,17.13
2022-10-20T19:44:03.546Z,15.13
2022-10-20T19:46:30.391Z,16.75
2022-10-20T19:48:57.506Z,19.33
2022-10-20T19:51:24.432Z,16.80
2022-10-20T19:53:51.743Z,19.27
2022-10-20T19:56:18.555Z,17.95
2022-10-20T19:58:46.748Z,16.15
2022-10-20T20:01:14.232Z,17.55
2022-10-20T20:03:41.153Z,17.77
2022-10-20T20:06:16.438Z,19.40
2022-10-20T20:08:56.862Z,17.90
2022-10-20T20:11:23.911Z,22.20
2022-10-20T20:13:56.992Z,15.52
2022-10-20T20:16:24.296Z,15.98
2022-10-20T20:18:51.034Z,15.43
2022-10-20T20:21:18.351Z,16.52
2022-10-20T20:23:58.841Z,17.02
2022-10-20T20:26:27.287Z,15.43
2022-10-20T20:28:55.337Z,17.85
2022-10-20T20:31:23.082Z,14.93
2022-10-20T20:33:50.206Z,19.98
2022-10-20T20:36:16.989Z,15.45
2022-10-20T20:38:43.858Z,14.05
2022-10-20T20:41:16.923Z,16.60
2022-10-20T20:43:46.968Z,15.73
2022-10-20T20:46:22.348Z,20.27
2022-10-20T20:48:49.286Z,21.40
2022-10-20T20:51:16.621Z,21.73
2022-10-20T20:53:43.332Z,17.48
2022-10-20T20:56:13.247Z,14.77
2022-10-20T20:58:41.874Z,18.80
2022-10-20T21:01:14.009Z,17.80
2022-10-20T21:03:41.493Z,16.95
2022-10-20T21:06:11.357Z,14.93
2022-10-20T21:08:39.891Z,18.90
2022-10-20T21:11:12.671Z,15.85
2022-10-20T21:13:41.251Z,17.38
2022-10-20T21:16:16.743Z,16.27
2022-10-20T21:18:46.274Z,15.57
2022-10-20T21:21:18.858Z,17.42
2022-10-20T21:23:45.962Z,15.63
2022-10-20T21:26:14.924Z,20.48
2022-10-20T21:28:42.497Z,17.25
2022-10-20T21:31:12.145Z,17.85
2022-10-20T21:33:39.425Z,16.80
2022-10-20T21:36:12.242Z,16.67
2022-10-20T21:38:40.002Z,16.92
2022-10-20T21:41:12.818Z,15.77
2022-10-20T21:43:43.189Z,15.57
2022-10-20T21:46:13.926Z,16.70
2022-10-20T21:48:41.685Z,16.85
2022-10-20T21:51:11.019Z,15.02
2022-10-20T21:53:38.324Z,14.32
2022-10-20T21:56:05.673Z,13.20
2022-10-20T21:58:32.634Z,17.30
2022-10-20T22:00:59.606Z,17.92
2022-10-20T22:03:26.457Z,18.08
2022-10-20T22:05:53.279Z,14.73
2022-10-20T22:08:20.002Z,16.02
2022-10-20T22:10:46.711Z,22.13
2022-10-20T22:13:13.421Z,17.20
2022-10-20T22:15:40.695Z,16.48
2022-10-20T22:18:07.469Z,17.23
2022-10-20T22:20:37.282Z,17.60
2022-10-20T22:23:06.052Z,19.65
2022-10-20T22:25:38.000Z,18.40
2022-10-20T22:28:05.926Z,19.30
2022-10-20T22:30:33.725Z,17.08
2022-10-20T22:33:01.053Z,18.05
2022-10-20T22:35:28.377Z,18.52
2022-10-20T22:37:55.202Z,15.75
2022-10-20T22:40:21.933Z,18.42
2022-10-20T22:42:48.645Z,16.40
2022-10-20T22:45:15.698Z,16.77
2022-10-20T22:47:42.506Z,16.77
2022-10-20T22:50:09.473Z,15.10
2022-10-20T22:52:36.639Z,18.63
2022-10-20T22:55:03.893Z,18.80
2022-10-20T22:57:30.610Z,18.25
2022-10-20T22:59:57.338Z,19.77
2022-10-20T23:02:24.124Z,26.83
2022-10-20T23:04:50.817Z,20.77
2022-10-20T23:07:17.540Z,18.55
2022-10-20T23:09:44.277Z,17.08
2022-10-20T23:12:10.961Z,20.98
2022-10-20T23:14:37.687Z,18.42
2022-10-20T23:17:04.404Z,17.00
2022-10-20T23:19:31.357Z,16.40
2022-10-20T23:21:58.058Z,17.77
2022-10-20T23:24:24.848Z,19.10
2022-10-20T23:26:51.624Z,19.70
2022-10-20T23:29:18.329Z,17.27
2022-10-20T23:31:45.062Z,16.13
2022-10-20T23:34:11.811Z,15.73
2022-10-20T23:36:39.262Z,17.88
2022-10-20T23:39:06.118Z,17.15
2022-10-20T23:41:32.797Z,19.00
2022-10-20T23:43:59.493Z,17.08
2022-10-20T23:46:27.739Z,20.40
2022-10-20T23:48:54.450Z,18.70
2022-10-20T23:51:21.164Z,18.20
2022-10-20T23:53:47.869Z,17.05
2022-10-20T23:56:14.646Z,19.80
2022-10-20T23:58:41.370Z,20.02
